Time;durP1;ratioP1;P1;durP2;ratioP2;P2;SDS_P1;SDS_P2;PMS_P1;PMS_P2;Temp;Humidity;BMP_temperature;BMP_pressure;BME280_temperature;BME280_humidity;BME280_pressure;Samples;Min_cycle;Max_cycle;Signal;HPM_P1;HPM_P2
2023/03/18 00:01:11;;;;;;;0.62;0.62;;;;;;;1.59;54.34;99675.19;4486933;32;33664;-74
2023/03/18 00:03:39;;;;;;;0.98;0.98;;;;;;;1.09;55.50;99671.91;4486871;32;35040;-73
2023/03/18 00:06:17;;;;;;;2.15;2.05;;;;;;;0.66;55.21;99667.91;4486718;32;35209;-74
2023/03/18 00:08:47;;;;;;;0.98;0.98;;;;;;;0.42;57.25;99671.34;4473175;32;33407;-74
2023/03/18 00:11:17;;;;;;;4.85;3.65;;;;;;;0.89;55.59;99669.53;4473118;32;34395;-73
2023/03/18 00:13:47;;;;;;;0.60;0.60;;;;;;;0.26;59.07;99663.94;4472838;32;34390;-73
2023/03/18 00:16:16;;;;;;;0.70;0.70;;;;;;;0.34;58.13;99654.84;4486744;32;34500;-74
2023/03/18 00:18:44;;;;;;;0.80;0.80;;;;;;;0.29;58.68;99656.38;4472747;32;34268;-73
2023/03/18 00:21:12;;;;;;;0.60;0.60;;;;;;;-0.10;60.51;99651.56;4486716;32;34736;-73
2023/03/18 00:23:41;;;;;;;0.80;0.80;;;;;;;0.16;59.23;99653.38;4486682;32;35059;-73
2023/03/18 00:26:10;;;;;;;7.45;4.20;;;;;;;0.09;59.55;99658.22;4472694;32;35213;-73
2023/03/18 00:28:40;;;;;;;4.15;3.90;;;;;;;0.41;58.29;99651.69;4486550;32;32694;-74
2023/03/18 00:31:10;;;;;;;0.70;0.70;;;;;;;0.69;56.31;99656.06;4486680;32;33770;-74
2023/03/18 00:33:44;;;;;;;0.70;0.70;;;;;;;0.57;59.72;99646.25;4472904;32;35903;-74
2023/03/18 00:36:13;;;;;;;0.70;0.70;;;;;;;0.36;59.63;99648.09;4486689;32;35097;-74
2023/03/18 00:38:44;;;;;;;0.85;0.85;;;;;;;0.41;59.60;99656.81;4472659;32;34367;-74
2023/03/18 00:41:14;;;;;;;0.95;0.95;;;;;;;0.26;59.36;99651.16;4472690;32;33854;-74
2023/03/18 00:43:48;;;;;;;0.80;0.80;;;;;;;0.27;59.52;99645.22;4486599;32;34888;-74
2023/03/18 00:46:18;;;;;;;1.17;1.17;;;;;;;0.49;57.71;99652.81;4472847;32;34575;-74
2023/03/18 00:48:47;;;;;;;0.90;0.90;;;;;;;0.06;60.19;99648.75;4486854;32;34463;-74
2023/03/18 00:51:16;;;;;;;0.70;0.70;;;;;;;0.62;57.60;99645.53;4472519;32;34643;-74
2023/03/18 00:53:47;;;;;;;0.70;0.70;;;;;;;0.78;56.09;99652.06;4472814;32;35040;-74
2023/03/18 00:56:18;;;;;;;1.17;1.17;;;;;;;0.68;56.49;99644.06;4472660;32;34582;-74
2023/03/18 00:58:47;;;;;;;0.70;0.70;;;;;;;0.70;55.88;99644.13;4486863;32;33546;-74
2023/03/18 01:01:16;;;;;;;1.50;1.40;;;;;;;0.53;56.81;99640.97;4472384;32;33798;-74
2023/03/18 01:03:45;;;;;;;1.27;1.25;;;;;;;0.65;57.12;99643.94;4472527;32;34923;-74
2023/03/18 01:06:21;;;;;;;0.70;0.70;;;;;;;1.24;53.91;99638.19;4472458;32;35286;-74
2023/03/18 01:08:50;;;;;;;0.80;0.80;;;;;;;1.41;53.58;99628.44;4472790;32;33542;-74
2023/03/18 01:11:18;;;;;;;0.80;0.80;;;;;;;1.54;52.37;99628.00;4472321;32;33873;-74
2023/03/18 01:13:47;;;;;;;0.70;0.70;;;;;;;1.63;53.37;99627.41;4472203;32;34246;-74
2023/03/18 01:16:16;;;;;;;2.08;1.83;;;;;;;1.32;53.96;99626.44;4472324;32;34446;-74
2023/03/18 01:18:45;;;;;;;0.70;0.70;;;;;;;0.97;55.54;99633.03;4486332;32;33413;-74
2023/03/18 01:21:14;;;;;;;1.25;1.25;;;;;;;1.31;53.14;99620.47;4472067;32;33179;-74
2023/03/18 01:23:43;;;;;;;2.15;1.95;;;;;;;1.00;54.27;99617.75;4459957;32;35948;-74
2023/03/18 01:26:12;;;;;;;0.70;0.70;;;;;;;0.76;54.75;99613.59;4472639;32;34573;-74
2023/03/18 01:28:41;;;;;;;0.80;0.80;;;;;;;1.00;53.64;99604.94;4472470;32;33386;-74
2023/03/18 01:31:11;;;;;;;0.70;0.70;;;;;;;0.98;54.19;99604.03;4472359;32;34557;-74
2023/03/18 01:33:41;;;;;;;0.80;0.80;;;;;;;1.64;51.96;99606.03;4472915;32;35024;-74
2023/03/18 01:36:10;;;;;;;0.70;0.70;;;;;;;1.50;52.27;99592.78;4486219;32;35228;-74
2023/03/18 01:38:39;;;;;;;1.83;1.75;;;;;;;1.96;51.27;99596.69;4472229;32;33531;-74
2023/03/18 01:41:09;;;;;;;1.45;1.40;;;;;;;2.02;50.59;99593.41;4486458;32;33951;-74
2023/03/18 01:43:40;;;;;;;0.98;0.98;;;;;;;2.37;49.60;99584.09;4472465;32;35026;-74
2023/03/18 01:46:33;;;;;;;0.60;0.60;;;;;;;2.20;50.75;99593.03;4472496;32;34609;-74
2023/03/18 01:49:06;;;;;;;0.88;0.88;;;;;;;2.48;49.24;99586.94;4486103;32;33314;-74
2023/03/18 01:51:35;;;;;;;0.73;0.73;;;;;;;2.68;47.94;99581.41;4472159;32;33894;-74
2023/03/18 01:54:05;;;;;;;0.60;0.60;;;;;;;3.06;47.07;99586.62;4472368;32;35031;-74
2023/03/18 01:56:35;;;;;;;0.65;0.65;;;;;;;3.39;46.29;99586.53;4472066;32;35253;-74
2023/03/18 01:59:06;;;;;;;0.60;0.60;;;;;;;2.82;49.18;99582.63;4459433;32;32763;-74
2023/03/18 02:01:41;;;;;;;0.75;0.75;;;;;;;2.03;52.04;99596.03;4459339;32;32948;-74
2023/03/18 02:04:10;;;;;;;1.45;1.40;;;;;;;2.08;52.38;99597.03;4472522;32;35051;-74
2023/03/18 02:06:39;;;;;;;1.10;0.98;;;;;;;1.54;54.15;99593.75;4486322;32;34493;-74
2023/03/18 02:09:08;;;;;;;0.60;0.60;;;;;;;1.59;54.08;99590.50;4458624;32;33469;-74
2023/03/18 02:11:40;;;;;;;0.70;0.70;;;;;;;1.46;53.01;99593.53;4486042;32;34757;-74
2023/03/18 02:14:12;;;;;;;0.70;0.70;;;;;;;1.76;52.81;99597.81;4472140;32;35026;-74
2023/03/18 02:16:51;;;;;;;0.80;0.80;;;;;;;2.20;50.02;99593.91;4472206;32;35108;-74
2023/03/18 02:19:28;;;;;;;0.60;0.60;;;;;;;1.45;53.72;99596.94;4472279;32;34263;-74
2023/03/18 02:22:22;;;;;;;0.60;0.60;;;;;;;1.07;56.41;99584.66;4486301;32;33928;-74
2023/03/18 02:24:56;;;;;;;0.80;0.80;;;;;;;0.46;58.10;99586.12;4472209;32;34987;-74
2023/03/18 02:27:27;;;;;;;0.70;0.70;;;;;;;0.59;57.02;99583.97;4471650;32;34392;-74
2023/03/18 02:30:00;;;;;;;0.70;0.70;;;;;;;0.76;56.86;99587.94;4471975;32;33659;-74
2023/03/18 02:32:30;;;;;;;0.70;0.70;;;;;;;0.96;55.44;99582.59;4472232;32;33976;-73
2023/03/18 02:35:04;;;;;;;0.70;0.70;;;;;;;1.26;54.10;99580.97;4472200;32;35132;-74
2023/03/18 02:37:33;;;;;;;0.80;0.80;;;;;;;1.48;52.40;99581.59;4472113;32;34543;-74
2023/03/18 02:40:18;;;;;;;0.70;0.70;;;;;;;1.39;53.83;99586.47;4486068;32;33518;-74
2023/03/18 02:42:47;;;;;;;0.70;0.70;;;;;;;1.21;54.28;99585.06;4472040;32;33959;-74
2023/03/18 02:45:40;;;;;;;0.70;0.70;;;;;;;1.47;52.37;99585.00;4472088;32;35894;-74
2023/03/18 02:48:10;;;;;;;1.50;1.45;;;;;;;1.56;52.06;99590.41;4471751;32;34373;-74
2023/03/18 02:50:39;;;;;;;1.23;1.23;;;;;;;2.02;50.64;99589.13;4471798;32;33413;-74
2023/03/18 02:53:11;;;;;;;0.70;0.70;;;;;;;1.66;52.06;99591.53;4471454;32;34122;-74
2023/03/18 02:55:41;;;;;;;0.90;0.90;;;;;;;1.31;52.83;99581.97;4485630;32;35856;-73
2023/03/18 02:58:09;;;;;;;0.70;0.70;;;;;;;1.38;52.65;99588.16;4485581;32;34533;-74
2023/03/18 03:00:37;;;;;;;0.70;0.70;;;;;;;1.43;52.37;99583.16;4485911;32;34329;-74
2023/03/18 03:03:06;;;;;;;0.70;0.70;;;;;;;1.41;52.20;99579.69;4471440;32;33834;-74
2023/03/18 03:05:35;;;;;;;0.70;0.70;;;;;;;1.41;52.78;99584.81;4458437;32;34157;-74
2023/03/18 03:08:04;;;;;;;0.77;0.77;;;;;;;1.40;52.55;99577.97;4485685;32;34649;-74
2023/03/18 03:10:33;;;;;;;0.70;0.70;;;;;;;1.13;53.82;99573.75;4471524;32;33385;-74
2023/03/18 03:13:01;;;;;;;1.70;1.65;;;;;;;0.99;53.54;99575.88;4458550;32;34641;-74
2023/03/18 03:15:29;;;;;;;0.70;0.70;;;;;;;1.16;52.42;99578.06;4485230;32;35033;-74
2023/03/18 03:17:58;;;;;;;0.70;0.70;;;;;;;1.27;52.62;99577.59;4485548;32;35330;-74
2023/03/18 03:20:27;;;;;;;0.70;0.70;;;;;;;1.62;52.07;99585.44;4486125;32;34398;-74
2023/03/18 03:22:57;;;;;;;0.70;0.70;;;;;;;1.25;52.37;99578.34;4473484;32;33052;-74
2023/03/18 03:25:26;;;;;;;1.90;1.80;;;;;;;1.60;51.53;99589.66;4473191;32;35050;-74
2023/03/18 03:27:55;;;;;;;0.70;0.70;;;;;;;1.54;51.61;99594.63;4487212;32;34494;-74
2023/03/18 03:30:25;;;;;;;1.02;1.02;;;;;;;1.40;51.63;99588.22;4473337;32;34252;-74
2023/03/18 03:32:53;;;;;;;0.93;0.93;;;;;;;1.49;52.58;99593.62;4472847;32;32436;-74
2023/03/18 03:35:23;;;;;;;0.70;0.70;;;;;;;1.43;52.11;99591.75;4473040;32;34913;-74
2023/03/18 03:37:51;;;;;;;0.68;0.68;;;;;;;1.21;52.44;99595.34;4473192;32;34525;-74
2023/03/18 03:40:20;;;;;;;3.83;3.42;;;;;;;1.44;51.82;99595.19;4473243;32;33328;-74
2023/03/18 03:42:50;;;;;;;1.67;1.58;;;;;;;1.18;52.58;99600.38;4473156;32;33180;-74
2023/03/18 03:45:19;;;;;;;0.80;0.80;;;;;;;1.11;52.79;99599.34;4487199;32;35045;-74
2023/03/18 03:47:47;;;;;;;0.70;0.70;;;;;;;1.36;52.02;99601.75;4473039;32;34509;-74
2023/03/18 03:50:16;;;;;;;0.70;0.70;;;;;;;1.21;52.74;99603.03;4487071;32;33341;-74
2023/03/18 03:52:45;;;;;;;1.58;1.58;;;;;;;1.21;52.46;99603.03;4473275;32;33822;-74
2023/03/18 03:55:17;;;;;;;0.70;0.70;;;;;;;1.20;52.28;99595.28;4472973;32;36079;-74
2023/03/18 03:57:45;;;;;;;0.70;0.70;;;;;;;1.42;51.88;99607.09;4487428;32;35226;-74
2023/03/18 04:00:18;;;;;;;0.70;0.70;;;;;;;1.40;52.34;99593.34;4473235;32;33709;-74
2023/03/18 04:02:48;;;;;;;11.05;10.35;;;;;;;1.47;51.57;99602.97;4473259;32;34583;-74
2023/03/18 04:05:19;;;;;;;0.62;0.62;;;;;;;1.62;51.10;99599.97;4473337;32;35934;-74
2023/03/18 04:07:48;;;;;;;0.60;0.60;;;;;;;1.40;51.65;99598.47;4460175;32;34506;-74
2023/03/18 04:10:19;;;;;;;0.73;0.73;;;;;;;1.57;51.51;99602.44;4473216;32;34449;-74
2023/03/18 04:12:47;;;;;;;0.75;0.75;;;;;;;1.79;51.00;99600.47;4459985;32;33150;-74
2023/03/18 04:15:18;;;;;;;0.95;0.95;;;;;;;1.80;51.48;99604.75;4486715;32;34960;-74
2023/03/18 04:17:50;;;;;;;0.70;0.70;;;;;;;2.14;50.08;99603.16;4473258;32;34559;-74
2023/03/18 04:20:19;;;;;;;0.60;0.60;;;;;;;2.23;49.95;99598.28;4486875;32;33574;-74
2023/03/18 04:22:48;;;;;;;0.60;0.60;;;;;;;2.50;49.23;99604.97;4486934;32;33902;-74
2023/03/18 04:25:17;;;;;;;0.70;0.70;;;;;;;2.27;49.61;99607.78;4473099;32;35037;-74
2023/03/18 04:27:46;;;;;;;0.68;0.68;;;;;;;2.49;49.15;99603.22;4471664;32;33723;-74
2023/03/18 04:30:16;;;;;;;0.77;0.77;;;;;;;2.36;49.32;99608.03;4486126;32;33536;-74
2023/03/18 04:32:46;;;;;;;1.15;1.15;;;;;;;2.74;48.68;99609.88;4486025;32;33770;-74
2023/03/18 04:35:16;;;;;;;12.57;6.55;;;;;;;2.51;49.28;99602.44;4485994;32;35764;-74
2023/03/18 04:37:44;;;;;;;1.10;1.10;;;;;;;2.45;49.35;99608.28;4471816;32;33659;-74
2023/03/18 04:40:12;;;;;;;1.30;1.25;;;;;;;2.47;49.42;99603.16;4486102;32;34141;-74
2023/03/18 04:42:42;;;;;;;1.83;1.73;;;;;;;2.87;48.42;99616.19;4485701;32;33936;-74
2023/03/18 04:45:10;;;;;;;0.60;0.60;;;;;;;3.09;47.58;99612.41;4485796;32;35040;-74
2023/03/18 04:47:40;;;;;;;1.15;1.15;;;;;;;3.32;47.48;99615.50;4485700;32;34466;-74
2023/03/18 04:50:11;;;;;;;0.60;0.60;;;;;;;2.99;48.13;99616.47;4472057;32;33376;-74
2023/03/18 04:52:40;;;;;;;0.70;0.70;;;;;;;3.10;48.00;99620.16;4471843;32;34712;-74
2023/03/18 04:55:11;;;;;;;1.90;1.80;;;;;;;2.84;48.60;99617.84;4471999;32;34995;-74
2023/03/18 04:57:41;;;;;;;0.55;0.55;;;;;;;3.10;48.34;99615.03;4471884;32;33684;-73
2023/03/18 05:00:12;;;;;;;2.53;2.35;;;;;;;3.00;48.20;99613.06;4485944;32;32851;-74
2023/03/18 05:02:42;;;;;;;0.80;0.80;;;;;;;3.33;48.00;99617.25;4472099;32;33924;-74
2023/03/18 05:05:10;;;;;;;0.80;0.80;;;;;;;3.68;46.92;99624.91;4471723;32;35951;-74
2023/03/18 05:07:39;;;;;;;0.62;0.62;;;;;;;3.53;47.44;99628.88;4485859;32;35054;-74
2023/03/18 05:10:08;;;;;;;0.60;0.60;;;;;;;3.33;47.74;99627.56;4471735;32;33505;-74
2023/03/18 05:12:37;;;;;;;2.97;2.78;;;;;;;3.34;47.67;99625.03;4485534;32;34352;-74
2023/03/18 05:15:06;;;;;;;0.55;0.55;;;;;;;3.47;47.61;99631.31;4471444;32;35881;-74
2023/03/18 05:17:36;;;;;;;0.90;0.90;;;;;;;3.47;47.71;99638.16;4459258;32;35033;-74
2023/03/18 05:20:06;;;;;;;0.62;0.62;;;;;;;3.65;47.22;99637.72;4459061;32;33521;-74
2023/03/18 05:22:34;;;;;;;1.00;1.00;;;;;;;3.52;47.44;99634.84;4471356;32;34030;-74
2023/03/18 05:25:04;;;;;;;1.30;1.20;;;;;;;3.84;47.13;99637.25;4471582;32;35029;-72
2023/03/18 05:27:32;;;;;;;4.03;2.78;;;;;;;3.85;47.13;99644.16;4480565;32;170528;-73
2023/03/18 05:30:04;;;;;;;0.60;0.60;;;;;;;4.32;46.41;99638.22;4458078;32;33443;-72
2023/03/18 05:32:33;;;;;;;0.60;0.60;;;;;;;4.17;46.73;99637.09;4472382;32;33994;-73
2023/03/18 05:35:02;;;;;;;0.88;0.88;;;;;;;4.81;45.74;99646.00;4486101;32;35825;-72
2023/03/18 05:37:31;;;;;;;6.43;2.45;;;;;;;5.47;44.14;99640.19;4485194;32;33828;-72
2023/03/18 05:40:03;;;;;;;0.77;0.77;;;;;;;6.83;40.97;99647.00;4486094;32;33996;-73
2023/03/18 05:42:32;;;;;;;1.02;1.02;;;;;;;6.73;40.65;99650.34;4485267;32;33942;-72
2023/03/18 05:45:07;;;;;;;1.00;1.00;;;;;;;6.75;40.66;99648.63;4484670;32;35997;-73
2023/03/18 05:47:36;;;;;;;0.70;0.70;;;;;;;6.74;40.63;99652.97;4486378;32;34404;-72
2023/03/18 05:50:06;;;;;;;1.55;1.45;;;;;;;6.29;41.50;99651.59;4471751;32;33030;-72
2023/03/18 05:52:35;;;;;;;0.65;0.65;;;;;;;6.34;41.58;99657.69;4485170;32;33877;-72
2023/03/18 05:55:04;;;;;;;0.57;0.57;;;;;;;5.81;42.33;99656.16;4485857;32;35690;-72
2023/03/18 05:57:33;;;;;;;0.93;0.93;;;;;;;6.09;42.21;99656.56;4486059;32;34591;-72
2023/03/18 06:00:02;;;;;;;0.50;0.50;;;;;;;6.25;41.74;99660.19;4486094;32;34288;-73
2023/03/18 06:02:31;;;;;;;0.50;0.50;;;;;;;7.42;39.89;99658.69;4484864;32;33757;-73
2023/03/18 06:05:00;;;;;;;1.00;1.00;;;;;;;8.93;36.80;99648.97;4485598;32;35128;-72
2023/03/18 06:07:29;;;;;;;1.02;1.02;;;;;;;9.41;35.63;99660.22;4472050;32;34477;-72
2023/03/18 06:09:57;;;;;;;1.08;1.08;;;;;;;8.53;36.85;99665.31;4485966;32;33382;-73
2023/03/18 06:12:27;;;;;;;0.50;0.50;;;;;;;8.23;38.00;99662.59;4486041;32;33776;-73
2023/03/18 06:14:55;;;;;;;1.20;0.95;;;;;;;7.88;38.48;99663.31;4485913;32;35827;-73
2023/03/18 06:17:26;;;;;;;1.12;1.12;;;;;;;7.71;38.93;99666.69;4485782;32;34139;-72
2023/03/18 06:19:55;;;;;;;1.50;1.40;;;;;;;7.37;40.06;99669.00;4485655;32;34205;-74
2023/03/18 06:22:25;;;;;;;1.10;1.10;;;;;;;8.05;39.29;99659.06;4485788;32;33986;-73
2023/03/18 06:24:54;;;;;;;1.60;1.48;;;;;;;7.91;38.65;99664.19;4484325;32;35655;-73
2023/03/18 06:27:23;;;;;;;1.95;1.40;;;;;;;8.24;38.20;99670.41;4485801;32;34433;-73
2023/03/18 06:29:53;;;;;;;2.85;2.25;;;;;;;8.51;37.71;99668.78;4484679;32;34395;-73
2023/03/18 06:32:21;;;;;;;0.98;0.98;;;;;;;8.34;38.22;99674.72;4484876;32;34668;-74
2023/03/18 06:34:49;;;;;;;0.62;0.62;;;;;;;9.61;36.58;99680.97;4485898;32;35941;-73
2023/03/18 06:37:18;;;;;;;0.62;0.62;;;;;;;9.54;36.09;99681.84;4485407;32;35288;-73
2023/03/18 06:39:48;;;;;;;0.90;0.88;;;;;;;9.97;35.44;99689.59;4484516;32;33652;-73
2023/03/18 06:42:17;;;;;;;0.70;0.70;;;;;;;9.38;36.45;99685.34;4484745;32;33894;-73
2023/03/18 06:44:49;;;;;;;0.77;0.77;;;;;;;9.86;35.79;99687.03;4485239;32;35876;-73
2023/03/18 06:47:20;;;;;;;0.57;0.57;;;;;;;10.11;35.48;99686.94;4485570;32;34360;-74
2023/03/18 06:49:50;;;;;;;0.88;0.88;;;;;;;11.06;33.85;99683.00;4484250;32;33503;-74
2023/03/18 06:52:20;;;;;;;0.43;0.43;;;;;;;10.47;35.33;99689.44;4484482;32;33410;-74
2023/03/18 06:54:49;;;;;;;0.98;0.98;;;;;;;10.91;34.46;99688.34;4485381;32;36114;-73
2023/03/18 06:57:19;;;;;;;1.05;1.05;;;;;;;10.31;36.20;99691.22;4484704;32;34378;-74
2023/03/18 06:59:48;;;;;;;0.60;0.60;;;;;;;11.23;34.27;99687.22;4485593;32;34297;-74
2023/03/18 07:02:17;;;;;;;0.47;0.47;;;;;;;11.34;33.79;99691.47;4485714;32;33640;-74
2023/03/18 07:04:45;;;;;;;1.52;1.42;;;;;;;10.70;34.55;99692.78;4485926;32;35090;-74
2023/03/18 07:07:14;;;;;;;0.90;0.90;;;;;;;10.04;36.96;99691.31;4485698;32;35352;-74
2023/03/18 07:09:43;;;;;;;0.90;0.90;;;;;;;10.97;34.35;99681.31;4485429;32;33444;-74
2023/03/18 07:12:15;;;;;;;0.60;0.60;;;;;;;10.60;34.63;99688.50;4484441;32;34747;-74
2023/03/18 07:14:44;;;;;;;1.20;1.20;;;;;;;10.29;35.09;99691.22;4485325;32;35091;-74
2023/03/18 07:17:13;;;;;;;2.62;2.37;;;;;;;11.11;33.97;99694.25;4484482;32;34397;-75
2023/03/18 07:19:41;;;;;;;1.12;1.02;;;;;;;10.61;36.31;99685.88;4484200;32;33346;-74
2023/03/18 07:22:10;;;;;;;0.70;0.70;;;;;;;11.75;33.46;99686.75;4484254;32;33313;-75
2023/03/18 07:24:39;;;;;;;5.47;2.10;;;;;;;11.86;32.90;99691.84;4485038;32;35142;-75
2023/03/18 07:27:07;;;;;;;1.65;1.23;;;;;;;11.91;32.98;99692.72;4483738;32;34329;-76
2023/03/18 07:29:35;;;;;;;1.10;0.90;;;;;;;12.17;32.50;99683.72;4471022;32;32819;-76
2023/03/18 07:32:05;;;;;;;0.73;0.73;;;;;;;11.93;34.21;99694.44;4483836;32;33234;-74
2023/03/18 07:34:34;;;;;;;1.55;1.05;;;;;;;12.30;32.38;99694.03;4483890;32;35036;-78
2023/03/18 07:37:02;;;;;;;1.08;1.05;;;;;;;12.44;33.44;99691.25;4485193;32;35271;-74
2023/03/18 07:39:31;;;;;;;1.77;1.67;;;;;;;13.03;31.99;99695.66;4483935;32;33370;-74
2023/03/18 07:41:59;;;;;;;1.95;1.15;;;;;;;12.98;31.17;99693.09;4484897;32;34025;-75
2023/03/18 07:44:28;;;;;;;2.60;2.40;;;;;;;12.77;32.99;99696.03;4458199;32;34206;-75
2023/03/18 07:46:56;;;;;;;0.95;0.95;;;;;;;13.28;32.14;99707.44;4484846;32;34520;-76
2023/03/18 07:49:25;;;;;;;1.30;1.20;;;;;;;13.63;30.01;99706.03;4484836;32;34289;-74
2023/03/18 07:51:53;;;;;;;1.35;1.25;;;;;;;13.53;31.21;99714.06;4483542;32;34723;-74
2023/03/18 07:54:23;;;;;;;1.30;1.08;;;;;;;13.01;30.18;99710.50;4484073;32;34605;-75
2023/03/18 07:56:52;;;;;;;0.95;0.88;;;;;;;12.80;30.83;99711.66;4483550;32;34603;-74
2023/03/18 07:59:21;;;;;;;0.30;0.30;;;;;;;12.98;30.46;99710.53;4484554;32;33378;-74
2023/03/18 08:01:49;;;;;;;0.52;0.50;;;;;;;12.64;30.87;99716.25;4484410;32;33996;-74
2023/03/18 08:04:18;;;;;;;1.37;1.35;;;;;;;12.38;31.48;99721.78;4483090;32;34639;-74
2023/03/18 08:06:47;;;;;;;0.90;0.90;;;;;;;12.58;32.34;99711.94;4485696;32;34115;-74
2023/03/18 08:09:15;;;;;;;0.45;0.45;;;;;;;12.56;31.19;99711.09;4486595;32;33293;-74
2023/03/18 08:11:44;;;;;;;0.80;0.80;;;;;;;13.42;30.91;99711.63;4485528;32;34709;-74
2023/03/18 08:14:12;;;;;;;1.67;1.55;;;;;;;13.44;30.52;99710.72;4486732;32;35007;-74
2023/03/18 08:16:41;;;;;;;0.30;0.30;;;;;;;12.59;31.50;99710.22;4486752;32;34440;-76
2023/03/18 08:19:09;;;;;;;2.40;0.88;;;;;;;12.69;31.76;99710.06;4485698;32;33673;-74
2023/03/18 08:21:38;;;;;;;0.77;0.77;;;;;;;12.18;31.72;99714.16;4486840;32;33932;-74
2023/03/18 08:24:06;;;;;;;0.57;0.57;;;;;;;12.64;31.35;99717.09;4486802;32;35018;-74
2023/03/18 08:26:35;;;;;;;1.75;1.65;;;;;;;12.78;31.31;99709.06;4485419;32;35184;-74
2023/03/18 08:29:03;;;;;;;0.40;0.40;;;;;;;12.25;31.25;99716.72;4486830;32;33424;-75
2023/03/18 08:31:32;;;;;;;0.40;0.40;;;;;;;12.67;31.43;99711.84;4486583;32;34687;-74
2023/03/18 08:34:00;;;;;;;0.93;0.93;;;;;;;12.31;32.21;99719.22;4486540;32;36164;-74
2023/03/18 08:36:28;;;;;;;0.65;0.65;;;;;;;12.42;31.53;99719.09;4486621;32;34451;-75
2023/03/18 08:38:56;;;;;;;4.35;1.87;;;;;;;12.63;31.28;99717.13;4486697;32;34167;-74
2023/03/18 08:41:26;;;;;;;0.80;0.80;;;;;;;13.40;31.03;99703.81;4486698;32;34559;-74
2023/03/18 08:43:56;;;;;;;0.60;0.60;;;;;;;13.67;30.05;99704.22;4486580;32;34941;-74
2023/03/18 08:46:24;;;;;;;2.17;1.15;;;;;;;14.21;29.76;99703.25;4486616;32;33653;-74
2023/03/18 08:48:53;;;;;;;1.55;1.17;;;;;;;14.26;29.55;99708.38;4486619;32;33906;-74
2023/03/18 08:51:21;;;;;;;1.45;1.35;;;;;;;13.97;29.88;99709.81;4486685;32;33879;-74
2023/03/18 08:53:49;;;;;;;0.65;0.65;;;;;;;15.11;30.00;99715.31;4486475;32;35019;-75
2023/03/18 08:56:18;;;;;;;0.65;0.65;;;;;;;14.87;28.53;99701.84;4486692;32;35267;-74
2023/03/18 08:58:47;;;;;;;0.47;0.47;;;;;;;14.83;29.91;99709.84;4486489;32;33986;-74
2023/03/18 09:01:15;;;;;;;1.45;1.25;;;;;;;15.32;28.43;99709.56;4485284;32;33950;-74
2023/03/18 09:03:44;;;;;;;0.95;0.85;;;;;;;15.05;28.37;99718.94;4486496;32;35938;-74
2023/03/18 09:06:13;;;;;;;0.45;0.45;;;;;;;15.48;28.35;99714.44;4485194;32;34420;-75
2023/03/18 09:08:42;;;;;;;0.57;0.57;;;;;;;15.02;29.77;99718.13;4486307;32;34411;-74
2023/03/18 09:11:12;;;;;;;0.45;0.45;;;;;;;15.62;27.40;99727.19;4485055;32;33842;-75
2023/03/18 09:13:40;;;;;;;0.50;0.50;;;;;;;15.08;28.17;99718.87;4486162;32;35117;-74
2023/03/18 09:16:09;;;;;;;1.45;1.35;;;;;;;15.13;28.07;99713.53;4485147;32;34581;-74
2023/03/18 09:18:39;;;;;;;1.50;1.40;;;;;;;15.73;27.88;99698.91;4485338;32;34264;-74
2023/03/18 09:21:10;;;;;;;0.62;0.62;;;;;;;16.17;26.68;99703.91;4486413;32;33861;-74
2023/03/18 09:23:40;;;;;;;0.50;0.50;;;;;;;16.55;25.99;99697.53;4472348;32;35114;-74
2023/03/18 09:26:08;;;;;;;3.12;2.72;;;;;;;15.77;27.13;99691.84;4486249;32;35299;-74
2023/03/18 09:28:36;;;;;;;1.02;1.02;;;;;;;16.20;27.28;99690.69;4486146;32;34322;-74
2023/03/18 09:31:05;;;;;;;0.77;0.77;;;;;;;16.78;25.91;99698.63;4472292;32;33091;-74
2023/03/18 09:33:35;;;;;;;0.40;0.40;;;;;;;16.51;26.60;99695.06;4486256;32;35963;-77
2023/03/18 09:36:04;;;;;;;0.70;0.70;;;;;;;16.63;25.66;99689.44;4485184;32;33613;-77
2023/03/18 09:38:33;;;;;;;0.40;0.40;;;;;;;16.12;27.10;99699.62;4486331;32;34173;-76
2023/03/18 09:41:03;;;;;;;0.60;0.60;;;;;;;15.47;27.05;99697.81;4472191;32;33784;-75
2023/03/18 09:43:56;;;;;;;1.95;1.85;;;;;;;15.36;28.20;99692.84;4486217;32;34272;-75
2023/03/18 09:46:44;;;;;;;0.47;0.47;;;;;;;16.87;25.61;99677.31;4484999;32;35130;-75
2023/03/18 09:49:31;;;;;;;0.93;0.93;;;;;;;16.72;25.87;99689.16;4486634;32;33488;-75
2023/03/18 09:52:09;;;;;;;1.35;1.20;;;;;;;16.10;26.45;99690.94;4486050;32;34052;-75
2023/03/18 09:54:43;;;;;;;1.05;1.00;;;;;;;17.21;25.43;99682.38;4486201;32;35033;-74
2023/03/18 09:57:17;;;;;;;0.47;0.47;;;;;;;17.99;24.46;99692.06;4485332;32;35206;-75
2023/03/18 10:00:12;;;;;;;0.47;0.47;;;;;;;17.38;24.98;99683.59;4486302;32;33618;-75
2023/03/18 10:03:03;;;;;;;0.40;0.40;;;;;;;17.51;25.71;99671.75;4478502;32;34781;-75
2023/03/18 10:05:36;;;;;;;1.58;1.48;;;;;;;18.00;24.49;99672.72;4484966;32;35976;-75
2023/03/18 10:08:37;;;;;;;2.70;1.73;;;;;;;19.12;23.50;99678.12;4484981;32;34445;-74
2023/03/18 10:11:15;;;;;;;1.23;1.12;;;;;;;17.99;23.97;99676.25;4431258;31;33318;-75
2023/03/18 10:13:51;;;;;;;2.22;2.03;;;;;;;17.79;24.26;99668.19;4485028;32;33937;-76
2023/03/18 10:16:24;;;;;;;2.42;1.95;;;;;;;18.33;24.58;99675.00;4484881;32;35137;-75
2023/03/18 10:18:53;;;;;;;2.30;1.77;;;;;;;19.70;22.75;99666.94;4484850;32;34409;-75
2023/03/18 10:21:48;;;;;;;0.62;0.62;;;;;;;19.06;22.28;99664.31;4485947;32;33353;-74
2023/03/18 10:24:23;;;;;;;0.68;0.68;;;;;;;17.41;24.97;99659.81;4484788;32;34718;-74
2023/03/18 10:27:16;;;;;;;0.60;0.60;;;;;;;19.14;23.03;99668.38;4485654;32;35093;-75
2023/03/18 10:29:57;;;;;;;0.32;0.32;;;;;;;20.50;21.93;99662.53;4483863;32;35206;-77
2023/03/18 10:32:34;;;;;;;1.35;1.25;;;;;;;20.58;22.40;99660.38;4469326;32;34477;-75
2023/03/18 10:35:32;;;;;;;2.10;0.75;;;;;;;20.64;21.34;99649.53;4472577;32;33917;-74
2023/03/18 10:38:03;;;;;;;0.37;0.37;;;;;;;21.10;21.52;99661.50;4484826;32;35186;-74
2023/03/18 10:40:37;;;;;;;0.95;0.95;;;;;;;19.72;23.67;99658.94;4470651;32;34785;-74
2023/03/18 10:43:15;;;;;;;0.52;0.52;;;;;;;20.04;23.46;99654.03;4468161;32;33153;-75
2023/03/18 10:45:46;;;;;;;0.22;0.22;;;;;;;20.23;24.32;99648.78;4470484;32;33957;-78
2023/03/18 10:48:28;;;;;;;0.60;0.60;;;;;;;18.33;25.00;99659.19;4470556;32;34236;-75
2023/03/18 10:51:09;;;;;;;1.60;0.88;;;;;;;18.81;25.22;99659.16;4457908;32;34524;-75
2023/03/18 10:53:44;;;;;;;0.73;0.73;;;;;;;19.21;25.51;99652.28;4482241;32;33673;-75
2023/03/18 10:56:14;;;;;;;0.68;0.68;;;;;;;20.75;23.47;99651.66;4484646;32;33992;-75
2023/03/18 10:58:42;;;;;;;0.90;0.70;;;;;;;21.16;21.75;99656.75;4470411;32;35140;-75
2023/03/18 11:01:13;;;;;;;0.50;0.50;;;;;;;21.73;22.56;99645.97;4484097;32;34417;-75
2023/03/18 11:03:53;;;;;;;1.15;1.05;;;;;;;22.11;21.18;99639.56;4469267;32;33404;-75
2023/03/18 11:06:34;;;;;;;1.45;1.35;;;;;;;21.98;21.31;99630.56;4468469;32;33964;-75
2023/03/18 11:09:10;;;;;;;0.82;0.82;;;;;;;22.25;20.61;99629.06;4469798;32;34385;-75
2023/03/18 11:11:48;;;;;;;1.35;1.23;;;;;;;21.46;21.78;99621.75;4467542;32;34511;-74
2023/03/18 11:14:27;;;;;;;1.17;1.12;;;;;;;22.26;20.79;99627.28;4455435;32;32602;-74
2023/03/18 11:17:08;;;;;;;1.98;1.40;;;;;;;23.02;19.84;99631.91;4458202;32;33953;-77
2023/03/18 11:19:40;;;;;;;0.30;0.30;;;;;;;22.18;20.62;99621.53;4454500;32;35926;-76
2023/03/18 11:22:08;;;;;;;0.50;0.50;;;;;;;21.50;21.58;99625.09;4453321;32;32953;-76
2023/03/18 11:24:38;;;;;;;1.55;0.98;;;;;;;21.17;21.89;99621.38;4484149;32;33372;-76
2023/03/18 11:27:13;;;;;;;0.85;0.85;;;;;;;21.75;21.35;99617.56;4466217;32;34367;-75
2023/03/18 11:29:53;;;;;;;0.62;0.62;;;;;;;22.59;19.93;99605.13;4473166;32;35261;-74
2023/03/18 11:32:33;;;;;;;2.05;1.80;;;;;;;24.39;18.65;99597.97;4469081;32;35217;-77
2023/03/18 11:35:07;;;;;;;1.62;1.52;;;;;;;22.98;19.94;99599.38;4468356;32;34304;-75
2023/03/18 11:37:40;;;;;;;0.95;0.95;;;;;;;23.47;20.07;99616.91;4454954;32;33220;-75
2023/03/18 11:40:17;;;;;;;0.75;0.75;;;;;;;23.12;20.15;99589.75;4442093;32;34323;-76
2023/03/18 11:42:47;;;;;;;1.33;1.23;;;;;;;23.32;19.79;99591.25;4484711;32;35118;-75
2023/03/18 11:45:25;;;;;;;0.60;0.60;;;;;;;22.66;20.02;99598.53;4472102;32;33415;-77
2023/03/18 11:47:53;;;;;;;2.65;1.50;;;;;;;22.50;20.57;99583.50;4478720;32;33593;-75
2023/03/18 11:50:29;;;;;;;0.82;0.82;;;;;;;21.87;20.99;99596.66;4471690;32;35921;-75
2023/03/18 11:53:26;;;;;;;1.27;0.70;;;;;;;22.10;20.79;99587.47;4456717;32;34554;-75
2023/03/18 11:56:10;;;;;;;3.80;2.60;;;;;;;22.45;21.42;99593.50;4458922;32;33348;-74
2023/03/18 11:58:51;;;;;;;0.65;0.65;;;;;;;21.52;22.78;99594.94;4471309;32;33127;-75